createdAt,value
2018-12-25T00:01:12.884Z,16.63
2018-12-25T00:04:16.336Z,13.30
2018-12-25T00:07:19.748Z,14.10
2018-12-25T00:10:23.172Z,13.57
2018-12-25T00:13:26.618Z,16.90
2018-12-25T00:16:30.032Z,14.77
2018-12-25T00:19:33.460Z,13.33
2018-12-25T00:22:36.897Z,13.47
2018-12-25T00:25:40.328Z,14.33
2018-12-25T00:28:43.751Z,13.43
2018-12-25T00:31:47.172Z,12.97
2018-12-25T00:34:50.711Z,12.30
2018-12-25T00:37:54.124Z,13.83
2018-12-25T00:40:57.547Z,12.80
2018-12-25T00:44:00.980Z,11.93
2018-12-25T00:47:04.461Z,13.60
2018-12-25T00:50:08.042Z,13.33
2018-12-25T00:53:11.475Z,11.60
2018-12-25T00:56:14.908Z,12.63
2018-12-25T00:59:18.336Z,11.67
2018-12-25T01:02:21.767Z,12.20
2018-12-25T01:05:25.203Z,11.97
2018-12-25T01:08:28.640Z,14.93
2018-12-25T01:11:32.970Z,12.57
2018-12-25T01:14:36.485Z,14.70
2018-12-25T01:17:39.907Z,13.20
2018-12-25T01:20:43.337Z,15.53
2018-12-25T01:23:46.744Z,14.73
2018-12-25T01:26:50.192Z,15.70
2018-12-25T01:29:53.595Z,13.40
2018-12-25T01:32:57.037Z,13.40
2018-12-25T01:36:00.472Z,15.27
2018-12-25T01:39:05.749Z,15.73
2018-12-25T01:42:09.169Z,13.67
2018-12-25T01:45:12.600Z,12.27
2018-12-25T01:48:16.012Z,14.93
2018-12-25T01:51:19.447Z,13.43
2018-12-25T01:54:22.868Z,15.03
2018-12-25T01:57:26.305Z,16.27
2018-12-25T02:00:29.728Z,13.63
2018-12-25T02:03:33.168Z,13.00
2018-12-25T02:06:36.596Z,11.17
2018-12-25T02:09:40.036Z,15.23
2018-12-25T02:12:43.456Z,11.80
2018-12-25T02:15:46.889Z,12.23
2018-12-25T02:18:50.401Z,13.00
2018-12-25T02:21:53.807Z,11.30
2018-12-25T02:24:57.212Z,13.10
2018-12-25T02:28:00.653Z,12.53
2018-12-25T02:31:04.082Z,12.60
2018-12-25T02:34:07.497Z,12.43
2018-12-25T02:37:10.919Z,14.77
2018-12-25T02:40:14.333Z,13.60
2018-12-25T02:43:17.745Z,11.17
2018-12-25T02:46:21.257Z,12.00
2018-12-25T02:49:24.690Z,12.97
2018-12-25T02:52:28.101Z,10.33
2018-12-25T02:55:31.552Z,13.87
2018-12-25T02:58:35.016Z,11.83
2018-12-25T03:01:38.410Z,13.23
2018-12-25T03:04:41.849Z,13.03
2018-12-25T03:07:45.261Z,12.80
2018-12-25T03:10:48.686Z,12.43
2018-12-25T03:13:52.190Z,11.80
2018-12-25T03:16:55.627Z,10.97
2018-12-25T03:20:00.004Z,11.37
2018-12-25T03:23:03.695Z,13.53
2018-12-25T03:26:07.093Z,13.97
2018-12-25T03:29:10.524Z,11.63
2018-12-25T03:32:13.943Z,13.03
2018-12-25T03:35:17.390Z,12.53
2018-12-25T03:38:20.824Z,11.13
2018-12-25T03:41:24.232Z,12.43
2018-12-25T03:44:27.685Z,9.73
2018-12-25T03:47:31.112Z,11.90
2018-12-25T03:50:34.540Z,12.77
2018-12-25T03:53:37.974Z,10.63
2018-12-25T03:56:41.409Z,14.53
2018-12-25T03:59:44.868Z,9.97
2018-12-25T04:02:48.273Z,11.30
2018-12-25T04:05:51.692Z,8.97
2018-12-25T04:08:55.156Z,11.67
2018-12-25T04:11:58.569Z,10.87
2018-12-25T04:15:02.029Z,9.23
2018-12-25T04:18:05.446Z,11.37
2018-12-25T04:21:08.877Z,9.90
2018-12-25T04:24:12.277Z,11.13
2018-12-25T04:27:15.710Z,8.73
2018-12-25T04:30:19.129Z,10.77
2018-12-25T04:33:22.536Z,10.73
2018-12-25T04:36:26.066Z,8.70
2018-12-25T04:39:29.474Z,8.73
2018-12-25T04:42:32.910Z,12.40
2018-12-25T04:45:36.344Z,10.03
2018-12-25T04:48:39.753Z,8.93
2018-12-25T04:51:43.193Z,11.93
2018-12-25T04:54:46.618Z,9.20
2018-12-25T04:57:50.048Z,9.07
2018-12-25T05:00:53.479Z,9.23
2018-12-25T05:03:56.909Z,8.83
2018-12-25T05:07:00.315Z,8.37
2018-12-25T05:10:04.313Z,10.10
2018-12-25T05:13:07.712Z,9.77
2018-12-25T05:16:11.149Z,9.80
2018-12-25T05:19:14.548Z,9.83
2018-12-25T05:22:17.980Z,11.77
2018-12-25T05:25:21.392Z,11.23
2018-12-25T05:28:24.890Z,10.60
2018-12-25T05:31:28.325Z,9.57
2018-12-25T05:34:32.722Z,10.70
2018-12-25T05:37:36.183Z,9.80
2018-12-25T05:40:39.603Z,9.53
2018-12-25T05:43:43.016Z,11.50
2018-12-25T05:46:46.448Z,9.93
2018-12-25T05:49:49.857Z,8.37
2018-12-25T05:52:53.279Z,9.60
2018-12-25T05:55:56.684Z,10.27
2018-12-25T05:59:00.137Z,8.43
2018-12-25T06:02:03.593Z,12.40
2018-12-25T06:05:07.041Z,9.00
2018-12-25T06:08:10.477Z,10.33
2018-12-25T06:11:13.916Z,11.57
2018-12-25T06:14:17.353Z,10.57
2018-12-25T06:17:20.780Z,14.27
2018-12-25T06:20:24.204Z,10.93
2018-12-25T06:23:27.639Z,12.40
2018-12-25T06:26:31.070Z,12.80
2018-12-25T06:29:34.496Z,11.37
2018-12-25T06:32:37.932Z,11.13
2018-12-25T06:35:41.360Z,11.80
2018-12-25T06:38:44.764Z,11.93
2018-12-25T06:41:48.232Z,14.30
2018-12-25T06:44:51.634Z,12.70
2018-12-25T06:47:55.069Z,11.10
2018-12-25T06:51:03.654Z,12.03
2018-12-25T06:54:03.668Z,12.23
2018-12-25T06:57:07.088Z,12.97
2018-12-25T07:00:10.528Z,10.97
2018-12-25T07:03:13.964Z,13.20
2018-12-25T07:06:17.373Z,14.17
2018-12-25T07:09:20.811Z,13.70
2018-12-25T07:12:24.216Z,12.57
2018-12-25T07:15:33.002Z,10.90
2018-12-25T07:18:32.840Z,12.57
2018-12-25T07:21:36.309Z,10.93
2018-12-25T07:24:39.747Z,11.40
2018-12-25T07:27:43.185Z,10.00
2018-12-25T07:30:46.636Z,11.07
2018-12-25T07:33:50.048Z,10.73
2018-12-25T07:36:53.476Z,12.70
2018-12-25T07:39:56.936Z,13.37
2018-12-25T07:43:00.347Z,13.00
2018-12-25T07:46:03.776Z,12.50
2018-12-25T07:49:07.208Z,13.03
2018-12-25T07:52:10.632Z,12.80
2018-12-25T07:55:14.056Z,11.37
2018-12-25T07:58:17.512Z,10.37
2018-12-25T08:01:20.944Z,11.10
2018-12-25T08:04:24.357Z,10.97
2018-12-25T08:07:27.797Z,11.97
2018-12-25T08:10:31.228Z,11.27
2018-12-25T08:13:34.680Z,11.30
2018-12-25T08:16:38.083Z,11.37
2018-12-25T08:19:41.520Z,13.07
2018-12-25T08:22:44.954Z,14.07
2018-12-25T08:25:48.363Z,11.67
2018-12-25T08:28:53.382Z,12.00
2018-12-25T08:31:56.815Z,12.50
2018-12-25T08:35:00.223Z,12.63
2018-12-25T08:38:03.676Z,11.93
2018-12-25T08:41:07.089Z,14.60
2018-12-25T08:44:10.548Z,12.60
2018-12-25T08:47:13.960Z,12.20
2018-12-25T08:50:17.408Z,13.83
2018-12-25T08:53:20.812Z,11.07
2018-12-25T08:56:24.248Z,18.80
2018-12-25T08:59:27.687Z,13.70
2018-12-25T09:02:31.140Z,12.93
2018-12-25T09:05:34.541Z,12.83
2018-12-25T09:08:37.976Z,13.33
2018-12-25T09:11:41.385Z,15.10
2018-12-25T09:14:44.828Z,13.83
2018-12-25T09:17:48.227Z,12.53
2018-12-25T09:20:51.695Z,12.37
2018-12-25T09:23:55.120Z,15.67
2018-12-25T09:26:58.577Z,14.40
2018-12-25T09:30:02.001Z,13.97
2018-12-25T09:33:05.460Z,14.07
2018-12-25T09:36:08.869Z,12.53
2018-12-25T09:39:12.308Z,13.47
2018-12-25T09:42:15.722Z,13.37
2018-12-25T09:45:19.144Z,14.50
2018-12-25T09:48:22.556Z,14.03
2018-12-25T09:51:26.022Z,12.23
2018-12-25T09:54:29.456Z,12.40
2018-12-25T09:57:32.864Z,13.00
2018-12-25T10:00:38.237Z,11.93
2018-12-25T10:03:41.480Z,12.93
2018-12-25T10:06:44.937Z,11.63
2018-12-25T10:09:48.368Z,12.37
2018-12-25T10:12:51.779Z,12.13
2018-12-25T10:15:55.237Z,10.93
2018-12-25T10:18:58.693Z,10.50
2018-12-25T10:22:03.172Z,12.83
2018-12-25T10:25:07.272Z,10.43
2018-12-25T10:28:10.724Z,11.00
2018-12-25T10:31:14.160Z,10.47
2018-12-25T10:34:17.596Z,10.17
2018-12-25T10:37:21.038Z,12.50
2018-12-25T10:40:24.468Z,13.17
2018-12-25T10:43:27.928Z,10.13
2018-12-25T10:46:31.378Z,11.53
2018-12-25T10:49:34.806Z,9.13
2018-12-25T10:52:38.338Z,10.37
2018-12-25T10:55:41.739Z,10.80
2018-12-25T10:58:45.168Z,9.80
2018-12-25T11:01:48.604Z,9.03
2018-12-25T11:04:52.012Z,10.63
2018-12-25T11:07:55.460Z,10.03
2018-12-25T11:10:58.884Z,9.20
2018-12-25T11:14:02.309Z,9.37
2018-12-25T11:17:05.721Z,11.47
2018-12-25T11:20:11.599Z,9.50
2018-12-25T11:23:14.289Z,9.93
2018-12-25T11:26:17.728Z,10.90
2018-12-25T11:29:21.146Z,8.87
2018-12-25T11:32:24.606Z,10.43
2018-12-25T11:35:28.012Z,10.83
2018-12-25T11:38:31.428Z,8.97
2018-12-25T11:41:34.838Z,11.70
2018-12-25T11:44:38.283Z,10.07
2018-12-25T11:47:41.772Z,7.87
2018-12-25T11:50:45.176Z,9.57
2018-12-25T11:53:48.608Z,8.03
2018-12-25T11:56:52.021Z,9.17
2018-12-25T11:59:55.451Z,8.40
2018-12-25T12:02:58.880Z,9.37
2018-12-25T12:06:02.297Z,8.43
2018-12-25T12:09:07.065Z,8.83
2018-12-25T12:12:10.488Z,8.60
2018-12-25T12:15:13.920Z,10.37
2018-12-25T12:18:17.361Z,9.07
2018-12-25T12:21:20.781Z,10.80
2018-12-25T12:24:24.217Z,9.90
2018-12-25T12:27:27.643Z,9.07
2018-12-25T12:30:31.067Z,9.27
2018-12-25T12:33:34.496Z,8.50
2018-12-25T12:36:38.376Z,10.10
2018-12-25T12:39:41.805Z,7.63
2018-12-25T12:42:45.211Z,7.17
2018-12-25T12:45:48.640Z,7.13
2018-12-25T12:48:52.092Z,6.57
2018-12-25T12:51:55.489Z,6.43
2018-12-25T12:54:58.919Z,8.50
2018-12-25T12:58:02.360Z,6.33
2018-12-25T13:01:05.760Z,7.43
2018-12-25T13:04:09.209Z,7.60
2018-12-25T13:07:12.736Z,7.70
2018-12-25T13:10:16.169Z,5.70
2018-12-25T13:13:19.586Z,5.13
2018-12-25T13:16:23.032Z,6.37
2018-12-25T13:19:26.467Z,5.30
2018-12-25T13:22:29.884Z,6.27
2018-12-25T13:25:33.296Z,5.97
2018-12-25T13:28:36.724Z,5.60
2018-12-25T13:31:40.151Z,5.03
2018-12-25T13:34:43.559Z,7.30
2018-12-25T13:37:46.991Z,5.37
2018-12-25T13:40:50.423Z,5.03
2018-12-25T13:43:53.840Z,5.23
2018-12-25T13:46:57.244Z,6.20
2018-12-25T13:50:00.676Z,6.30
2018-12-25T13:53:04.090Z,5.00
2018-12-25T13:56:07.518Z,5.03
2018-12-25T13:59:10.998Z,5.73
2018-12-25T14:02:17.257Z,4.97
2018-12-25T14:05:20.698Z,7.77
2018-12-25T14:08:24.108Z,6.47
2018-12-25T14:11:27.560Z,5.40
2018-12-25T14:14:30.949Z,6.83
2018-12-25T14:17:34.395Z,8.10
2018-12-25T14:20:37.848Z,7.13
2018-12-25T14:23:41.252Z,5.50
2018-12-25T14:26:44.688Z,6.17
2018-12-25T14:29:48.092Z,7.70
2018-12-25T14:32:51.531Z,6.23
2018-12-25T14:35:54.936Z,7.27
2018-12-25T14:38:58.376Z,6.87
2018-12-25T14:42:01.788Z,10.37
2018-12-25T14:45:05.776Z,7.50
2018-12-25T14:48:09.200Z,6.90
2018-12-25T14:51:12.608Z,9.40
2018-12-25T14:54:16.132Z,10.77
2018-12-25T14:57:19.581Z,8.07
2018-12-25T15:00:23.048Z,9.40
2018-12-25T15:03:26.460Z,10.27
2018-12-25T15:06:29.893Z,9.13
2018-12-25T15:09:33.346Z,8.90
2018-12-25T15:12:36.767Z,9.67
2018-12-25T15:15:40.205Z,9.37
2018-12-25T15:18:43.640Z,10.37
2018-12-25T15:21:47.100Z,9.83
2018-12-25T15:24:50.497Z,9.80
2018-12-25T15:27:53.937Z,9.70
2018-12-25T15:30:57.345Z,11.03
2018-12-25T15:34:00.792Z,10.23
2018-12-25T15:37:04.192Z,10.97
2018-12-25T15:40:08.500Z,14.00
2018-12-25T15:43:11.904Z,12.97
2018-12-25T15:46:15.374Z,11.50
2018-12-25T15:49:18.777Z,12.10
2018-12-25T15:52:22.255Z,15.97
2018-12-25T15:55:25.673Z,12.53
2018-12-25T15:58:29.117Z,12.47
2018-12-25T16:01:32.540Z,14.17
2018-12-25T16:04:35.981Z,11.93
2018-12-25T16:07:39.391Z,13.03
2018-12-25T16:10:42.864Z,14.30
2018-12-25T16:13:46.281Z,13.87
2018-12-25T16:16:49.752Z,13.10
2018-12-25T16:19:53.172Z,13.87
2018-12-25T16:22:56.609Z,12.53
2018-12-25T16:26:00.028Z,13.17
2018-12-25T16:29:03.460Z,13.50
2018-12-25T16:32:06.873Z,14.90
2018-12-25T16:35:10.321Z,18.57
2018-12-25T16:38:13.760Z,16.57
2018-12-25T16:41:17.201Z,14.93
2018-12-25T16:44:20.612Z,16.27
2018-12-25T16:47:24.043Z,14.60
2018-12-25T16:50:27.508Z,13.83
2018-12-25T16:53:31.182Z,14.77
2018-12-25T16:56:34.922Z,14.40
2018-12-25T16:59:38.625Z,15.87
2018-12-25T17:02:42.123Z,18.03
2018-12-25T17:05:45.597Z,15.60
2018-12-25T17:08:49.911Z,15.73
2018-12-25T17:11:53.364Z,16.63
2018-12-25T17:14:57.754Z,16.77
2018-12-25T17:18:01.203Z,16.10
2018-12-25T17:21:04.640Z,14.40
2018-12-25T17:24:08.069Z,15.03
2018-12-25T17:27:11.471Z,14.07
2018-12-25T17:30:14.909Z,19.17
2018-12-25T17:33:18.336Z,16.47
2018-12-25T17:36:21.766Z,15.00
2018-12-25T17:39:25.205Z,15.10
2018-12-25T17:42:28.776Z,15.37
2018-12-25T17:45:32.204Z,16.13
2018-12-25T17:48:35.664Z,16.13
2018-12-25T17:51:39.192Z,14.63
2018-12-25T17:54:42.801Z,18.63
2018-12-25T17:57:46.499Z,18.57
2018-12-25T18:00:50.273Z,16.37
2018-12-25T18:03:53.907Z,17.43
2018-12-25T18:06:57.520Z,16.73
2018-12-25T18:10:01.275Z,14.97
2018-12-25T18:13:04.775Z,17.23
2018-12-25T18:16:08.187Z,15.70
2018-12-25T18:19:11.643Z,20.90
2018-12-25T18:22:15.056Z,16.03
2018-12-25T18:25:18.524Z,16.40
2018-12-25T18:28:21.927Z,15.60
2018-12-25T18:31:25.356Z,17.73
2018-12-25T18:34:28.791Z,16.87
2018-12-25T18:37:32.208Z,18.00
2018-12-25T18:40:35.635Z,17.43
2018-12-25T18:43:39.053Z,16.57
2018-12-25T18:46:42.508Z,18.53
2018-12-25T18:49:45.944Z,16.47
2018-12-25T18:52:49.364Z,17.10
2018-12-25T18:55:52.805Z,16.13
2018-12-25T18:58:57.502Z,16.53
2018-12-25T19:02:01.040Z,18.30
2018-12-25T19:05:04.460Z,17.53
2018-12-25T19:08:07.896Z,15.67
2018-12-25T19:11:11.307Z,16.33
2018-12-25T19:14:14.755Z,15.87
2018-12-25T19:17:18.173Z,15.97
2018-12-25T19:20:21.624Z,16.30
2018-12-25T19:23:25.144Z,16.63
2018-12-25T19:26:28.605Z,19.07
2018-12-25T19:29:32.044Z,19.57
2018-12-25T19:32:43.623Z,21.10
2018-12-25T19:35:40.612Z,20.50
2018-12-25T19:38:44.020Z,20.13
2018-12-25T19:41:47.488Z,20.07
2018-12-25T19:44:50.897Z,20.07
2018-12-25T19:47:54.380Z,20.27
2018-12-25T19:50:57.816Z,20.43
2018-12-25T19:54:01.244Z,20.37
2018-12-25T19:57:04.659Z,21.63
2018-12-25T20:00:10.848Z,22.13
2018-12-25T20:03:14.277Z,20.83
2018-12-25T20:06:23.464Z,20.33
2018-12-25T20:10:04.556Z,20.17
2018-12-25T20:13:26.106Z,23.97
2018-12-25T20:16:44.037Z,23.80
2018-12-25T20:20:12.756Z,23.17
2018-12-25T20:23:50.778Z,20.97
2018-12-25T20:27:30.097Z,20.53
2018-12-25T20:30:44.967Z,23.37
2018-12-25T20:33:51.480Z,25.93
2018-12-25T20:37:12.119Z,24.57
2018-12-25T20:40:18.611Z,23.57
2018-12-25T20:43:58.205Z,21.73
2018-12-25T20:47:26.784Z,21.27
2018-12-25T20:50:48.252Z,22.67
2018-12-25T20:54:00.504Z,22.10
2018-12-25T20:57:33.816Z,21.50
2018-12-25T21:01:03.872Z,20.93
2018-12-25T21:04:26.525Z,23.10
2018-12-25T21:08:07.242Z,27.70
2018-12-25T21:11:28.587Z,22.90
2018-12-25T21:15:06.466Z,21.20
2018-12-25T21:18:15.728Z,19.07
2018-12-25T21:21:39.844Z,22.07
2018-12-25T21:25:19.375Z,22.30
2018-12-25T21:28:21.764Z,20.73
2018-12-25T21:31:25.361Z,23.13
2018-12-25T21:34:28.861Z,19.43
2018-12-25T21:37:32.401Z,20.40
2018-12-25T21:40:35.893Z,22.57
2018-12-25T21:43:40.680Z,21.13
2018-12-25T21:46:44.185Z,21.87
2018-12-25T21:49:49.149Z,23.00
2018-12-25T21:52:53.028Z,22.63
2018-12-25T21:55:56.505Z,22.63
2018-12-25T21:59:00.087Z,23.67
2018-12-25T22:02:03.674Z,24.63
2018-12-25T22:05:07.740Z,20.47
2018-12-25T22:08:11.143Z,22.77
2018-12-25T22:11:14.590Z,22.30
2018-12-25T22:14:18.020Z,22.33
2018-12-25T22:17:21.484Z,24.53
2018-12-25T22:20:24.913Z,20.60
2018-12-25T22:23:28.348Z,23.80
2018-12-25T22:26:31.784Z,24.07
2018-12-25T22:29:35.224Z,22.47
2018-12-25T22:32:38.639Z,19.23
2018-12-25T22:35:42.082Z,20.77
2018-12-25T22:38:45.512Z,22.77
2018-12-25T22:41:48.943Z,23.43
2018-12-25T22:44:52.372Z,24.53
2018-12-25T22:47:55.790Z,20.80
2018-12-25T22:50:59.260Z,22.53
2018-12-25T22:54:02.673Z,21.87
2018-12-25T22:57:06.132Z,22.20
2018-12-25T23:00:11.537Z,22.93
2018-12-25T23:03:14.964Z,24.23
2018-12-25T23:06:18.405Z,24.90
2018-12-25T23:09:21.824Z,21.63
2018-12-25T23:12:25.261Z,22.97
2018-12-25T23:15:28.700Z,21.40
2018-12-25T23:18:32.168Z,24.17
2018-12-25T23:21:35.597Z,22.17
2018-12-25T23:24:39.024Z,22.87
2018-12-25T23:27:42.442Z,21.27
2018-12-25T23:30:46.788Z,24.77
2018-12-25T23:33:50.248Z,21.07
2018-12-25T23:36:53.652Z,23.80
2018-12-25T23:39:57.104Z,25.00
2018-12-25T23:43:00.517Z,20.53
2018-12-25T23:46:03.964Z,20.50
2018-12-25T23:49:07.427Z,23.73
2018-12-25T23:52:10.851Z,22.37
2018-12-25T23:55:14.296Z,19.77
2018-12-25T23:58:17.733Z,21.93
